North Crossroads, Mississippi
Current Conditions -  °F | °C
As of 11:35 AM on Wednesday 26 Nov 2014 (Local Time) from KCRX Reporting Station
Few Clouds Few Clouds  
Wind Chill: 43°   Ceiling: Unl
Heat Index: 48°   Visibility: 10mi
Dew Point: 27°   Wind: 13mph
Humidity: 43%   Direction: 150°SSE
Pressure: 30.09"   Gusts: NA
Location:  34.8106°N, 88.1999°W
Report Text: KCRX 261735Z AUTO 15011KT 10SM FEW120 09/M03 A3009 RMK AO2
Loading
Personal Weather Stations






























Interactive Weather Map New forecast layout! Learn more

10-Day Weather Forecast

Advertisements
Track Severe Weather on mobile